sensor_id;sensor_type;location;lat;lon;timestamp;P1;durP1;ratioP1;P2;durP2;ratioP2
27983;SDS011;15317;50.360;8.726;2024-02-15T00:01:29;35.43;;;29.33;;
27983;SDS011;15317;50.360;8.726;2024-02-15T00:06:32;33.00;;;27.97;;
27983;SDS011;15317;50.360;8.726;2024-02-15T00:11:36;32.00;;;28.37;;
27983;SDS011;15317;50.360;8.726;2024-02-15T00:16:42;35.70;;;29.70;;
27983;SDS011;15317;50.360;8.726;2024-02-15T00:21:46;35.63;;;29.80;;
27983;SDS011;15317;50.360;8.726;2024-02-15T00:26:49;37.00;;;30.23;;
27983;SDS011;15317;50.360;8.726;2024-02-15T00:31:54;40.07;;;30.77;;
27983;SDS011;15317;50.360;8.726;2024-02-15T00:36:58;38.60;;;31.00;;
27983;SDS011;15317;50.360;8.726;2024-02-15T00:42:01;43.10;;;31.43;;
27983;SDS011;15317;50.360;8.726;2024-02-15T00:47:07;44.80;;;31.13;;
27983;SDS011;15317;50.360;8.726;2024-02-15T00:52:10;39.53;;;29.10;;
27983;SDS011;15317;50.360;8.726;2024-02-15T00:57:14;35.53;;;27.33;;
27983;SDS011;15317;50.360;8.726;2024-02-15T01:02:19;41.37;;;30.27;;
27983;SDS011;15317;50.360;8.726;2024-02-15T01:07:23;41.40;;;29.93;;
27983;SDS011;15317;50.360;8.726;2024-02-15T01:12:29;41.63;;;30.60;;
27983;SDS011;15317;50.360;8.726;2024-02-15T01:17:35;46.40;;;31.77;;
27983;SDS011;15317;50.360;8.726;2024-02-15T01:22:39;43.80;;;31.90;;
27983;SDS011;15317;50.360;8.726;2024-02-15T01:27:42;46.13;;;32.73;;
27983;SDS011;15317;50.360;8.726;2024-02-15T01:32:46;39.43;;;31.60;;
27983;SDS011;15317;50.360;8.726;2024-02-15T01:37:50;44.80;;;34.43;;
27983;SDS011;15317;50.360;8.726;2024-02-15T01:42:54;45.97;;;34.77;;
27983;SDS011;15317;50.360;8.726;2024-02-15T01:48:02;50.10;;;35.67;;
27983;SDS011;15317;50.360;8.726;2024-02-15T01:53:07;51.47;;;36.37;;
27983;SDS011;15317;50.360;8.726;2024-02-15T01:58:12;55.53;;;35.93;;
27983;SDS011;15317;50.360;8.726;2024-02-15T02:03:18;53.23;;;36.10;;
27983;SDS011;15317;50.360;8.726;2024-02-15T02:08:24;57.33;;;38.23;;
27983;SDS011;15317;50.360;8.726;2024-02-15T02:13:28;51.43;;;37.50;;
27983;SDS011;15317;50.360;8.726;2024-02-15T02:18:33;50.33;;;37.67;;
27983;SDS011;15317;50.360;8.726;2024-02-15T02:23:37;49.70;;;37.63;;
27983;SDS011;15317;50.360;8.726;2024-02-15T02:28:42;46.80;;;36.57;;
27983;SDS011;15317;50.360;8.726;2024-02-15T02:33:47;48.17;;;36.03;;
27983;SDS011;15317;50.360;8.726;2024-02-15T02:38:54;46.67;;;35.70;;
27983;SDS011;15317;50.360;8.726;2024-02-15T02:43:59;51.77;;;36.50;;
27983;SDS011;15317;50.360;8.726;2024-02-15T02:49:02;46.83;;;35.13;;
27983;SDS011;15317;50.360;8.726;2024-02-15T02:54:06;44.47;;;34.20;;
27983;SDS011;15317;50.360;8.726;2024-02-15T02:59:10;44.07;;;34.67;;
27983;SDS011;15317;50.360;8.726;2024-02-15T03:04:14;49.67;;;36.53;;
27983;SDS011;15317;50.360;8.726;2024-02-15T03:09:18;41.07;;;34.77;;
27983;SDS011;15317;50.360;8.726;2024-02-15T03:14:23;45.17;;;36.77;;
27983;SDS011;15317;50.360;8.726;2024-02-15T03:19:27;45.70;;;36.47;;
27983;SDS011;15317;50.360;8.726;2024-02-15T03:24:32;43.27;;;35.20;;
27983;SDS011;15317;50.360;8.726;2024-02-15T03:29:37;47.97;;;34.53;;
27983;SDS011;15317;50.360;8.726;2024-02-15T03:34:40;43.97;;;34.17;;
27983;SDS011;15317;50.360;8.726;2024-02-15T03:39:44;41.73;;;32.03;;
27983;SDS011;15317;50.360;8.726;2024-02-15T03:44:49;41.30;;;31.20;;
27983;SDS011;15317;50.360;8.726;2024-02-15T03:49:52;40.90;;;29.57;;
27983;SDS011;15317;50.360;8.726;2024-02-15T03:54:56;39.77;;;30.60;;
27983;SDS011;15317;50.360;8.726;2024-02-15T04:00:01;41.97;;;30.13;;
27983;SDS011;15317;50.360;8.726;2024-02-15T04:05:06;39.67;;;29.67;;
27983;SDS011;15317;50.360;8.726;2024-02-15T04:10:11;42.77;;;30.50;;
27983;SDS011;15317;50.360;8.726;2024-02-15T04:15:15;39.10;;;30.23;;
27983;SDS011;15317;50.360;8.726;2024-02-15T04:20:21;41.27;;;30.73;;
27983;SDS011;15317;50.360;8.726;2024-02-15T04:25:24;42.00;;;30.93;;
27983;SDS011;15317;50.360;8.726;2024-02-15T04:30:31;41.23;;;31.90;;
27983;SDS011;15317;50.360;8.726;2024-02-15T04:35:36;44.13;;;33.33;;
27983;SDS011;15317;50.360;8.726;2024-02-15T04:40:40;43.23;;;32.97;;
27983;SDS011;15317;50.360;8.726;2024-02-15T04:45:45;44.00;;;34.37;;
27983;SDS011;15317;50.360;8.726;2024-02-15T04:50:48;48.63;;;35.13;;
27983;SDS011;15317;50.360;8.726;2024-02-15T04:55:52;43.10;;;32.97;;
27983;SDS011;15317;50.360;8.726;2024-02-15T05:00:58;42.53;;;33.80;;
27983;SDS011;15317;50.360;8.726;2024-02-15T05:06:02;41.33;;;33.80;;
27983;SDS011;15317;50.360;8.726;2024-02-15T05:11:07;41.93;;;31.07;;
27983;SDS011;15317;50.360;8.726;2024-02-15T05:16:16;48.13;;;33.63;;
27983;SDS011;15317;50.360;8.726;2024-02-15T05:21:20;52.70;;;36.50;;
27983;SDS011;15317;50.360;8.726;2024-02-15T05:26:23;42.93;;;33.13;;
27983;SDS011;15317;50.360;8.726;2024-02-15T05:31:28;38.03;;;32.27;;
27983;SDS011;15317;50.360;8.726;2024-02-15T05:36:31;37.00;;;29.73;;
27983;SDS011;15317;50.360;8.726;2024-02-15T05:41:35;32.13;;;27.93;;
27983;SDS011;15317;50.360;8.726;2024-02-15T05:46:40;31.63;;;28.20;;
27983;SDS011;15317;50.360;8.726;2024-02-15T05:51:43;34.20;;;27.97;;
27983;SDS011;15317;50.360;8.726;2024-02-15T05:56:49;32.73;;;28.57;;
27983;SDS011;15317;50.360;8.726;2024-02-15T06:01:56;34.83;;;28.33;;
27983;SDS011;15317;50.360;8.726;2024-02-15T06:06:59;30.90;;;27.43;;
27983;SDS011;15317;50.360;8.726;2024-02-15T06:12:04;27.83;;;24.83;;
27983;SDS011;15317;50.360;8.726;2024-02-15T06:17:09;33.33;;;28.70;;
27983;SDS011;15317;50.360;8.726;2024-02-15T06:22:12;30.23;;;26.40;;
27983;SDS011;15317;50.360;8.726;2024-02-15T06:27:16;32.50;;;27.43;;
27983;SDS011;15317;50.360;8.726;2024-02-15T06:32:21;29.43;;;26.57;;
27983;SDS011;15317;50.360;8.726;2024-02-15T06:37:41;33.13;;;28.30;;
27983;SDS011;15317;50.360;8.726;2024-02-15T06:43:03;27.13;;;24.40;;
27983;SDS011;15317;50.360;8.726;2024-02-15T06:48:07;29.27;;;26.00;;
27983;SDS011;15317;50.360;8.726;2024-02-15T06:53:11;27.30;;;24.50;;
27983;SDS011;15317;50.360;8.726;2024-02-15T06:58:15;25.60;;;22.90;;
27983;SDS011;15317;50.360;8.726;2024-02-15T07:03:19;25.03;;;22.37;;
27983;SDS011;15317;50.360;8.726;2024-02-15T07:08:24;22.70;;;20.40;;
27983;SDS011;15317;50.360;8.726;2024-02-15T07:13:27;21.83;;;19.53;;
27983;SDS011;15317;50.360;8.726;2024-02-15T07:18:32;23.13;;;20.20;;
27983;SDS011;15317;50.360;8.726;2024-02-15T07:23:36;21.47;;;19.27;;
27983;SDS011;15317;50.360;8.726;2024-02-15T07:28:39;21.97;;;19.60;;
27983;SDS011;15317;50.360;8.726;2024-02-15T07:33:45;21.33;;;19.03;;
27983;SDS011;15317;50.360;8.726;2024-02-15T07:38:49;21.30;;;19.10;;
27983;SDS011;15317;50.360;8.726;2024-02-15T07:43:53;19.57;;;17.67;;
27983;SDS011;15317;50.360;8.726;2024-02-15T07:48:58;20.67;;;18.03;;
27983;SDS011;15317;50.360;8.726;2024-02-15T07:54:02;19.33;;;17.27;;
27983;SDS011;15317;50.360;8.726;2024-02-15T07:59:06;18.47;;;16.67;;
27983;SDS011;15317;50.360;8.726;2024-02-15T08:04:11;17.43;;;15.70;;
27983;SDS011;15317;50.360;8.726;2024-02-15T08:09:18;18.13;;;16.33;;
27983;SDS011;15317;50.360;8.726;2024-02-15T08:14:24;17.90;;;16.17;;
27983;SDS011;15317;50.360;8.726;2024-02-15T08:19:28;16.00;;;14.53;;
27983;SDS011;15317;50.360;8.726;2024-02-15T08:24:32;15.93;;;13.97;;
27983;SDS011;15317;50.360;8.726;2024-02-15T08:29:35;14.97;;;13.63;;
27983;SDS011;15317;50.360;8.726;2024-02-15T08:34:40;14.67;;;13.13;;
27983;SDS011;15317;50.360;8.726;2024-02-15T08:39:43;14.63;;;12.33;;
27983;SDS011;15317;50.360;8.726;2024-02-15T08:44:47;13.63;;;12.23;;
27983;SDS011;15317;50.360;8.726;2024-02-15T08:49:51;12.53;;;11.23;;
27983;SDS011;15317;50.360;8.726;2024-02-15T08:54:55;11.27;;;10.23;;
27983;SDS011;15317;50.360;8.726;2024-02-15T08:59:59;11.17;;;10.07;;
27983;SDS011;15317;50.360;8.726;2024-02-15T09:05:04;11.30;;;10.20;;
27983;SDS011;15317;50.360;8.726;2024-02-15T09:10:07;11.20;;;9.00;;
27983;SDS011;15317;50.360;8.726;2024-02-15T09:15:12;9.30;;;8.43;;
27983;SDS011;15317;50.360;8.726;2024-02-15T09:20:17;9.63;;;8.63;;
27983;SDS011;15317;50.360;8.726;2024-02-15T09:25:21;9.63;;;8.67;;
27983;SDS011;15317;50.360;8.726;2024-02-15T09:30:26;9.23;;;8.33;;
27983;SDS011;15317;50.360;8.726;2024-02-15T09:35:31;9.37;;;7.60;;
27983;SDS011;15317;50.360;8.726;2024-02-15T09:40:34;8.83;;;7.00;;
27983;SDS011;15317;50.360;8.726;2024-02-15T09:45:38;7.77;;;7.07;;
27983;SDS011;15317;50.360;8.726;2024-02-15T09:50:42;7.97;;;6.90;;
27983;SDS011;15317;50.360;8.726;2024-02-15T09:55:48;7.97;;;7.03;;
27983;SDS011;15317;50.360;8.726;2024-02-15T10:00:52;7.33;;;6.63;;
27983;SDS011;15317;50.360;8.726;2024-02-15T10:05:57;8.33;;;6.23;;
27983;SDS011;15317;50.360;8.726;2024-02-15T10:11:06;7.07;;;6.37;;
27983;SDS011;15317;50.360;8.726;2024-02-15T10:16:15;7.43;;;6.50;;
27983;SDS011;15317;50.360;8.726;2024-02-15T10:21:26;9.43;;;6.20;;
27983;SDS011;15317;50.360;8.726;2024-02-15T10:26:32;7.47;;;6.73;;
27983;SDS011;15317;50.360;8.726;2024-02-15T10:31:37;8.03;;;7.23;;
27983;SDS011;15317;50.360;8.726;2024-02-15T10:36:44;7.80;;;6.33;;
27983;SDS011;15317;50.360;8.726;2024-02-15T10:41:47;7.67;;;5.93;;
27983;SDS011;15317;50.360;8.726;2024-02-15T10:46:52;7.53;;;5.83;;
27983;SDS011;15317;50.360;8.726;2024-02-15T10:51:57;8.13;;;6.80;;
27983;SDS011;15317;50.360;8.726;2024-02-15T10:57:06;6.63;;;5.97;;
27983;SDS011;15317;50.360;8.726;2024-02-15T11:02:18;6.37;;;5.77;;
27983;SDS011;15317;50.360;8.726;2024-02-15T11:07:30;6.77;;;6.03;;
27983;SDS011;15317;50.360;8.726;2024-02-15T11:12:34;6.37;;;5.77;;
27983;SDS011;15317;50.360;8.726;2024-02-15T11:17:45;8.97;;;5.60;;
27983;SDS011;15317;50.360;8.726;2024-02-15T11:22:58;6.67;;;5.57;;
27983;SDS011;15317;50.360;8.726;2024-02-15T11:33:38;6.97;;;6.20;;
27983;SDS011;15317;50.360;8.726;2024-02-15T11:38:43;9.60;;;6.87;;
27983;SDS011;15317;50.360;8.726;2024-02-15T11:49:00;6.20;;;5.60;;
27983;SDS011;15317;50.360;8.726;2024-02-15T11:54:08;7.37;;;5.83;;
27983;SDS011;15317;50.360;8.726;2024-02-15T11:59:14;6.30;;;4.70;;
27983;SDS011;15317;50.360;8.726;2024-02-15T12:04:31;5.37;;;4.83;;
27983;SDS011;15317;50.360;8.726;2024-02-15T12:09:59;5.17;;;4.50;;
27983;SDS011;15317;50.360;8.726;2024-02-15T12:15:25;7.17;;;4.63;;
27983;SDS011;15317;50.360;8.726;2024-02-15T12:20:57;5.17;;;4.67;;
27983;SDS011;15317;50.360;8.726;2024-02-15T12:26:03;6.53;;;4.47;;
27983;SDS011;15317;50.360;8.726;2024-02-15T12:31:06;8.47;;;4.30;;
27983;SDS011;15317;50.360;8.726;2024-02-15T12:36:15;5.43;;;4.27;;
27983;SDS011;15317;50.360;8.726;2024-02-15T12:41:20;6.23;;;4.57;;
27983;SDS011;15317;50.360;8.726;2024-02-15T12:46:24;5.87;;;4.17;;
27983;SDS011;15317;50.360;8.726;2024-02-15T12:51:30;7.53;;;4.20;;
27983;SDS011;15317;50.360;8.726;2024-02-15T12:56:39;6.83;;;4.07;;
27983;SDS011;15317;50.360;8.726;2024-02-15T13:01:43;5.47;;;4.20;;
27983;SDS011;15317;50.360;8.726;2024-02-15T13:06:48;7.13;;;4.00;;
27983;SDS011;15317;50.360;8.726;2024-02-15T13:11:53;4.20;;;3.60;;
27983;SDS011;15317;50.360;8.726;2024-02-15T13:16:56;4.53;;;3.37;;
27983;SDS011;15317;50.360;8.726;2024-02-15T13:22:00;5.50;;;3.47;;
27983;SDS011;15317;50.360;8.726;2024-02-15T13:27:05;5.77;;;3.43;;
27983;SDS011;15317;50.360;8.726;2024-02-15T13:32:08;5.43;;;3.10;;
27983;SDS011;15317;50.360;8.726;2024-02-15T13:37:14;4.73;;;3.40;;
27983;SDS011;15317;50.360;8.726;2024-02-15T13:42:20;4.97;;;2.90;;
27983;SDS011;15317;50.360;8.726;2024-02-15T13:47:23;4.60;;;2.60;;
27983;SDS011;15317;50.360;8.726;2024-02-15T13:52:27;4.47;;;2.60;;
27983;SDS011;15317;50.360;8.726;2024-02-15T13:57:31;6.30;;;2.60;;
27983;SDS011;15317;50.360;8.726;2024-02-15T14:02:34;2.93;;;2.37;;
27983;SDS011;15317;50.360;8.726;2024-02-15T14:07:38;3.40;;;2.20;;
27983;SDS011;15317;50.360;8.726;2024-02-15T14:12:42;4.93;;;2.50;;
27983;SDS011;15317;50.360;8.726;2024-02-15T14:17:46;4.17;;;2.53;;
27983;SDS011;15317;50.360;8.726;2024-02-15T14:22:50;5.20;;;2.50;;
27983;SDS011;15317;50.360;8.726;2024-02-15T14:27:59;3.97;;;2.40;;
27983;SDS011;15317;50.360;8.726;2024-02-15T14:33:03;3.50;;;2.40;;
27983;SDS011;15317;50.360;8.726;2024-02-15T14:38:08;4.37;;;2.40;;
27983;SDS011;15317;50.360;8.726;2024-02-15T14:43:14;3.17;;;2.60;;
27983;SDS011;15317;50.360;8.726;2024-02-15T14:48:20;4.80;;;2.60;;
27983;SDS011;15317;50.360;8.726;2024-02-15T14:53:26;3.47;;;2.50;;
27983;SDS011;15317;50.360;8.726;2024-02-15T14:58:31;4.50;;;3.00;;
27983;SDS011;15317;50.360;8.726;2024-02-15T15:03:34;5.10;;;3.00;;
27983;SDS011;15317;50.360;8.726;2024-02-15T15:08:39;5.27;;;3.00;;
27983;SDS011;15317;50.360;8.726;2024-02-15T15:14:02;6.23;;;3.70;;
27983;SDS011;15317;50.360;8.726;2024-02-15T15:19:06;4.50;;;3.23;;
27983;SDS011;15317;50.360;8.726;2024-02-15T15:24:09;6.07;;;3.67;;
27983;SDS011;15317;50.360;8.726;2024-02-15T15:29:14;5.23;;;3.30;;
27983;SDS011;15317;50.360;8.726;2024-02-15T15:34:17;6.30;;;3.60;;
27983;SDS011;15317;50.360;8.726;2024-02-15T15:39:21;6.47;;;3.57;;
27983;SDS011;15317;50.360;8.726;2024-02-15T15:44:27;6.50;;;3.87;;
27983;SDS011;15317;50.360;8.726;2024-02-15T15:49:32;5.43;;;3.23;;
27983;SDS011;15317;50.360;8.726;2024-02-15T15:54:39;5.00;;;3.37;;
27983;SDS011;15317;50.360;8.726;2024-02-15T15:59:44;6.43;;;3.70;;
27983;SDS011;15317;50.360;8.726;2024-02-15T16:04:47;7.70;;;3.80;;
27983;SDS011;15317;50.360;8.726;2024-02-15T16:09:56;4.37;;;3.90;;
27983;SDS011;15317;50.360;8.726;2024-02-15T16:15:01;5.37;;;4.03;;
27983;SDS011;15317;50.360;8.726;2024-02-15T16:20:08;5.30;;;3.37;;
27983;SDS011;15317;50.360;8.726;2024-02-15T16:25:13;5.17;;;3.60;;
27983;SDS011;15317;50.360;8.726;2024-02-15T16:30:22;5.93;;;3.63;;
27983;SDS011;15317;50.360;8.726;2024-02-15T16:35:31;6.27;;;3.47;;
27983;SDS011;15317;50.360;8.726;2024-02-15T16:40:38;5.53;;;3.70;;
27983;SDS011;15317;50.360;8.726;2024-02-15T16:45:42;5.37;;;3.93;;
27983;SDS011;15317;50.360;8.726;2024-02-15T16:50:46;5.40;;;3.33;;
27983;SDS011;15317;50.360;8.726;2024-02-15T16:55:49;7.83;;;3.70;;
27983;SDS011;15317;50.360;8.726;2024-02-15T17:00:54;8.03;;;3.87;;
27983;SDS011;15317;50.360;8.726;2024-02-15T17:05:58;6.17;;;3.80;;
27983;SDS011;15317;50.360;8.726;2024-02-15T17:11:04;5.17;;;4.10;;
27983;SDS011;15317;50.360;8.726;2024-02-15T17:16:08;6.57;;;5.03;;
27983;SDS011;15317;50.360;8.726;2024-02-15T17:21:11;6.03;;;5.43;;
27983;SDS011;15317;50.360;8.726;2024-02-15T17:26:15;7.63;;;4.83;;
27983;SDS011;15317;50.360;8.726;2024-02-15T17:31:20;5.60;;;5.00;;
27983;SDS011;15317;50.360;8.726;2024-02-15T17:36:24;8.73;;;4.87;;
27983;SDS011;15317;50.360;8.726;2024-02-15T17:41:27;6.10;;;4.53;;
27983;SDS011;15317;50.360;8.726;2024-02-15T17:46:34;8.03;;;4.50;;
27983;SDS011;15317;50.360;8.726;2024-02-15T17:51:38;7.73;;;4.40;;
27983;SDS011;15317;50.360;8.726;2024-02-15T17:56:44;7.33;;;4.77;;
27983;SDS011;15317;50.360;8.726;2024-02-15T18:01:51;7.27;;;4.43;;
27983;SDS011;15317;50.360;8.726;2024-02-15T18:06:54;6.60;;;4.67;;
27983;SDS011;15317;50.360;8.726;2024-02-15T18:11:58;6.03;;;4.80;;
27983;SDS011;15317;50.360;8.726;2024-02-15T18:17:03;7.40;;;6.57;;
27983;SDS011;15317;50.360;8.726;2024-02-15T18:22:06;7.63;;;6.40;;
27983;SDS011;15317;50.360;8.726;2024-02-15T18:27:09;9.23;;;6.70;;
27983;SDS011;15317;50.360;8.726;2024-02-15T18:32:15;8.33;;;6.50;;
27983;SDS011;15317;50.360;8.726;2024-02-15T18:37:19;9.93;;;7.47;;
27983;SDS011;15317;50.360;8.726;2024-02-15T18:42:25;9.27;;;8.30;;
27983;SDS011;15317;50.360;8.726;2024-02-15T18:47:29;9.70;;;7.90;;
27983;SDS011;15317;50.360;8.726;2024-02-15T18:52:33;9.47;;;7.43;;
27983;SDS011;15317;50.360;8.726;2024-02-15T18:57:36;8.73;;;6.83;;
27983;SDS011;15317;50.360;8.726;2024-02-15T19:02:41;9.97;;;7.37;;
27983;SDS011;15317;50.360;8.726;2024-02-15T19:07:44;9.30;;;7.03;;
27983;SDS011;15317;50.360;8.726;2024-02-15T19:12:47;10.63;;;6.57;;
27983;SDS011;15317;50.360;8.726;2024-02-15T19:17:54;7.27;;;6.50;;
27983;SDS011;15317;50.360;8.726;2024-02-15T19:22:58;7.37;;;6.67;;
27983;SDS011;15317;50.360;8.726;2024-02-15T19:28:02;12.70;;;7.93;;
27983;SDS011;15317;50.360;8.726;2024-02-15T19:33:09;8.33;;;7.23;;
27983;SDS011;15317;50.360;8.726;2024-02-15T19:38:12;9.13;;;7.80;;
27983;SDS011;15317;50.360;8.726;2024-02-15T19:43:15;10.30;;;7.77;;
27983;SDS011;15317;50.360;8.726;2024-02-15T19:48:20;10.17;;;8.00;;
27983;SDS011;15317;50.360;8.726;2024-02-15T19:53:25;9.27;;;7.40;;
27983;SDS011;15317;50.360;8.726;2024-02-15T19:58:28;9.90;;;7.80;;
27983;SDS011;15317;50.360;8.726;2024-02-15T20:03:33;8.20;;;6.83;;
27983;SDS011;15317;50.360;8.726;2024-02-15T20:08:36;8.70;;;7.60;;
27983;SDS011;15317;50.360;8.726;2024-02-15T20:13:39;7.37;;;6.70;;
27983;SDS011;15317;50.360;8.726;2024-02-15T20:18:45;8.93;;;6.67;;
27983;SDS011;15317;50.360;8.726;2024-02-15T20:23:48;8.60;;;7.07;;
27983;SDS011;15317;50.360;8.726;2024-02-15T20:28:53;7.53;;;6.27;;
27983;SDS011;15317;50.360;8.726;2024-02-15T20:33:57;7.63;;;5.50;;
27983;SDS011;15317;50.360;8.726;2024-02-15T20:39:01;8.07;;;5.87;;
27983;SDS011;15317;50.360;8.726;2024-02-15T20:44:04;6.03;;;5.43;;
27983;SDS011;15317;50.360;8.726;2024-02-15T20:49:12;8.10;;;5.37;;
27983;SDS011;15317;50.360;8.726;2024-02-15T20:54:16;8.03;;;5.67;;
27983;SDS011;15317;50.360;8.726;2024-02-15T20:59:19;6.83;;;5.40;;
27983;SDS011;15317;50.360;8.726;2024-02-15T21:04:24;8.93;;;5.30;;
27983;SDS011;15317;50.360;8.726;2024-02-15T21:09:28;8.60;;;5.43;;
27983;SDS011;15317;50.360;8.726;2024-02-15T21:14:33;6.27;;;5.17;;
27983;SDS011;15317;50.360;8.726;2024-02-15T21:19:38;6.10;;;4.70;;
27983;SDS011;15317;50.360;8.726;2024-02-15T21:24:41;5.53;;;4.50;;
27983;SDS011;15317;50.360;8.726;2024-02-15T21:29:45;5.30;;;4.53;;
27983;SDS011;15317;50.360;8.726;2024-02-15T21:34:51;6.07;;;4.93;;
27983;SDS011;15317;50.360;8.726;2024-02-15T21:39:54;6.43;;;4.80;;
27983;SDS011;15317;50.360;8.726;2024-02-15T21:44:57;6.33;;;4.77;;
27983;SDS011;15317;50.360;8.726;2024-02-15T21:50:02;5.70;;;4.90;;
27983;SDS011;15317;50.360;8.726;2024-02-15T21:55:07;7.00;;;4.30;;
27983;SDS011;15317;50.360;8.726;2024-02-15T22:00:10;8.07;;;4.50;;
27983;SDS011;15317;50.360;8.726;2024-02-15T22:05:15;5.30;;;4.57;;
27983;SDS011;15317;50.360;8.726;2024-02-15T22:10:19;5.83;;;4.37;;
27983;SDS011;15317;50.360;8.726;2024-02-15T22:15:22;6.30;;;4.73;;
27983;SDS011;15317;50.360;8.726;2024-02-15T22:20:28;4.93;;;4.23;;
27983;SDS011;15317;50.360;8.726;2024-02-15T22:25:31;4.80;;;4.30;;
27983;SDS011;15317;50.360;8.726;2024-02-15T22:30:34;5.23;;;4.50;;
27983;SDS011;15317;50.360;8.726;2024-02-15T22:35:39;6.93;;;4.13;;
27983;SDS011;15317;50.360;8.726;2024-02-15T22:40:42;6.33;;;4.27;;
27983;SDS011;15317;50.360;8.726;2024-02-15T22:45:45;5.70;;;4.07;;
27983;SDS011;15317;50.360;8.726;2024-02-15T22:50:51;5.30;;;4.30;;
27983;SDS011;15317;50.360;8.726;2024-02-15T22:55:54;7.23;;;4.87;;
27983;SDS011;15317;50.360;8.726;2024-02-15T23:00:58;7.63;;;5.00;;
27983;SDS011;15317;50.360;8.726;2024-02-15T23:06:03;6.50;;;4.80;;
27983;SDS011;15317;50.360;8.726;2024-02-15T23:11:09;6.37;;;4.57;;
27983;SDS011;15317;50.360;8.726;2024-02-15T23:16:12;5.20;;;4.70;;
27983;SDS011;15317;50.360;8.726;2024-02-15T23:21:19;5.87;;;4.50;;
27983;SDS011;15317;50.360;8.726;2024-02-15T23:26:23;7.33;;;4.47;;
27983;SDS011;15317;50.360;8.726;2024-02-15T23:31:26;5.50;;;4.87;;
27983;SDS011;15317;50.360;8.726;2024-02-15T23:36:31;5.20;;;4.80;;
27983;SDS011;15317;50.360;8.726;2024-02-15T23:41:52;6.07;;;4.80;;
27983;SDS011;15317;50.360;8.726;2024-02-15T23:46:55;4.80;;;4.30;;
27983;SDS011;15317;50.360;8.726;2024-02-15T23:52:00;5.20;;;4.67;;
27983;SDS011;15317;50.360;8.726;2024-02-15T23:57:03;4.60;;;4.20;;
